createdAt,value
2023-06-06T00:02:13.583Z,20.50
2023-06-06T00:04:40.091Z,20.55
2023-06-06T00:07:07.998Z,20.85
2023-06-06T00:09:34.430Z,19.20
2023-06-06T00:12:00.870Z,21.73
2023-06-06T00:14:27.304Z,21.15
2023-06-06T00:16:53.771Z,20.40
2023-06-06T00:19:20.276Z,20.92
2023-06-06T00:21:46.699Z,21.05
2023-06-06T00:24:14.572Z,19.85
2023-06-06T00:26:40.992Z,20.83
2023-06-06T00:29:07.416Z,20.02
2023-06-06T00:31:33.979Z,20.17
2023-06-06T00:34:00.521Z,20.55
2023-06-06T00:36:27.017Z,19.63
2023-06-06T00:38:53.461Z,19.88
2023-06-06T00:41:21.256Z,19.95
2023-06-06T00:43:47.674Z,18.85
2023-06-06T00:46:14.564Z,18.58
2023-06-06T00:48:41.173Z,17.83
2023-06-06T00:51:08.706Z,18.77
2023-06-06T00:53:35.599Z,19.70
2023-06-06T00:56:02.369Z,18.35
2023-06-06T00:58:30.698Z,17.20
2023-06-06T01:00:57.531Z,17.48
2023-06-06T01:03:24.695Z,19.25
2023-06-06T01:05:51.291Z,17.90
2023-06-06T01:08:17.689Z,20.20
2023-06-06T01:10:44.201Z,18.52
2023-06-06T01:13:12.937Z,17.77
2023-06-06T01:15:44.107Z,17.83
2023-06-06T01:18:11.429Z,18.85
2023-06-06T01:20:37.895Z,18.35
2023-06-06T01:23:05.734Z,18.95
2023-06-06T01:25:34.487Z,18.40
2023-06-06T01:28:01.053Z,18.33
2023-06-06T01:30:29.058Z,19.17
2023-06-06T01:33:01.658Z,18.85
2023-06-06T01:35:31.233Z,19.10
2023-06-06T01:38:00.948Z,18.80
2023-06-06T01:40:30.555Z,18.83
2023-06-06T01:42:56.997Z,19.05
2023-06-06T01:45:26.069Z,19.48
2023-06-06T01:47:52.536Z,19.10
2023-06-06T01:50:19.216Z,19.00
2023-06-06T01:52:45.627Z,19.65
2023-06-06T01:55:12.051Z,19.58
2023-06-06T01:57:39.987Z,18.25
2023-06-06T02:00:07.002Z,19.30
2023-06-06T02:02:33.534Z,18.67
2023-06-06T02:05:00.015Z,17.90
2023-06-06T02:07:26.399Z,18.73
2023-06-06T02:09:52.819Z,17.10
2023-06-06T02:12:19.207Z,18.50
2023-06-06T02:14:47.004Z,18.77
2023-06-06T02:17:13.426Z,18.35
2023-06-06T02:19:39.832Z,18.20
2023-06-06T02:22:06.687Z,19.00
2023-06-06T02:24:33.086Z,18.15
2023-06-06T02:26:59.697Z,19.08
2023-06-06T02:29:26.107Z,18.30
2023-06-06T02:31:54.246Z,19.48
2023-06-06T02:34:20.648Z,18.48
2023-06-06T02:36:47.107Z,18.63
2023-06-06T02:39:13.564Z,19.65
2023-06-06T02:41:39.991Z,19.30
2023-06-06T02:44:06.484Z,18.70
2023-06-06T02:46:33.105Z,19.73
2023-06-06T02:49:00.877Z,20.45
2023-06-06T02:51:27.512Z,18.98
2023-06-06T02:53:54.121Z,19.98
2023-06-06T02:56:20.587Z,19.48
2023-06-06T02:58:47.042Z,17.40
2023-06-06T03:01:13.647Z,19.25
2023-06-06T03:03:40.322Z,19.45
2023-06-06T03:06:08.223Z,20.02
2023-06-06T03:08:34.785Z,19.20
2023-06-06T03:11:01.257Z,17.77
2023-06-06T03:13:27.705Z,18.13
2023-06-06T03:15:54.188Z,18.35
2023-06-06T03:18:20.645Z,17.63
2023-06-06T03:20:47.707Z,18.70
2023-06-06T03:23:15.506Z,18.92
2023-06-06T03:25:42.265Z,18.33
2023-06-06T03:28:08.666Z,18.48
2023-06-06T03:30:35.099Z,17.83
2023-06-06T03:33:01.567Z,17.25
2023-06-06T03:35:29.562Z,18.33
2023-06-06T03:37:55.970Z,16.45
2023-06-06T03:40:24.052Z,17.20
2023-06-06T03:42:50.830Z,17.65
2023-06-06T03:45:17.382Z,17.73
2023-06-06T03:47:43.831Z,16.13
2023-06-06T03:50:10.701Z,17.48
2023-06-06T03:52:37.363Z,18.25
2023-06-06T03:55:04.048Z,16.40
2023-06-06T03:57:31.842Z,19.60
2023-06-06T03:59:58.228Z,18.45
2023-06-06T04:02:24.724Z,18.80
2023-06-06T04:04:51.394Z,18.13
2023-06-06T04:07:17.852Z,19.27
2023-06-06T04:09:44.352Z,19.08
2023-06-06T04:12:10.839Z,18.85
2023-06-06T04:14:38.585Z,18.60
2023-06-06T04:17:05.220Z,17.58
2023-06-06T04:19:31.608Z,18.60
2023-06-06T04:21:59.207Z,18.42
2023-06-06T04:24:25.630Z,19.10
2023-06-06T04:26:52.064Z,20.38
2023-06-06T04:29:18.531Z,19.02
2023-06-06T04:31:46.377Z,18.42
2023-06-06T04:34:12.925Z,19.83
2023-06-06T04:36:39.363Z,18.67
2023-06-06T04:39:05.842Z,19.90
2023-06-06T04:46:27.854Z,18.17
2023-06-06T04:48:55.893Z,18.40
2023-06-06T04:51:23.662Z,19.50
2023-06-06T04:53:50.095Z,20.10
2023-06-06T04:56:16.510Z,18.95
2023-06-06T04:58:42.975Z,20.08
2023-06-06T05:01:09.807Z,18.75
2023-06-06T05:03:36.452Z,19.20
2023-06-06T05:06:04.427Z,19.55
2023-06-06T05:08:30.875Z,20.00
2023-06-06T05:10:57.298Z,19.05
2023-06-06T05:13:23.767Z,17.60
2023-06-06T05:15:50.237Z,18.27
2023-06-06T05:18:16.688Z,17.80
2023-06-06T05:20:43.134Z,17.15
2023-06-06T05:23:10.945Z,18.60
2023-06-06T05:25:37.434Z,17.38
2023-06-06T05:28:03.951Z,18.02
2023-06-06T05:30:30.352Z,17.73
2023-06-06T05:32:56.842Z,16.38
2023-06-06T05:35:23.285Z,17.67
2023-06-06T05:37:50.068Z,17.83
2023-06-06T05:40:18.120Z,17.40
2023-06-06T05:42:44.561Z,17.98
2023-06-06T05:45:11.201Z,18.08
2023-06-06T05:47:37.676Z,17.75
2023-06-06T05:50:04.391Z,18.08
2023-06-06T05:52:30.810Z,16.83
2023-06-06T05:55:00.928Z,18.63
2023-06-06T05:57:28.769Z,17.30
2023-06-06T05:59:55.211Z,17.70
2023-06-06T06:02:21.941Z,17.58
2023-06-06T06:04:48.581Z,18.65
2023-06-06T06:07:15.100Z,18.50
2023-06-06T06:09:41.575Z,18.02
2023-06-06T06:12:08.485Z,18.60
2023-06-06T06:14:36.298Z,18.60
2023-06-06T06:17:02.835Z,18.27
2023-06-06T06:19:29.259Z,17.40
2023-06-06T06:21:55.721Z,16.95
2023-06-06T06:24:22.175Z,17.08
2023-06-06T06:26:48.590Z,17.48
2023-06-06T06:29:14.983Z,18.38
2023-06-06T06:31:42.813Z,18.65
2023-06-06T06:34:09.323Z,18.40
2023-06-06T06:36:35.753Z,17.73
2023-06-06T06:39:02.175Z,17.23
2023-06-06T06:41:28.605Z,18.83
2023-06-06T06:43:55.001Z,19.05
2023-06-06T06:46:21.493Z,18.85
2023-06-06T06:48:49.364Z,23.50
2023-06-06T06:51:15.822Z,21.10
2023-06-06T06:53:42.271Z,23.17
2023-06-06T06:56:08.673Z,24.23
2023-06-06T06:58:35.343Z,23.58
2023-06-06T07:01:02.266Z,22.38
2023-06-06T07:03:28.723Z,25.05
2023-06-06T07:05:56.512Z,24.85
2023-06-06T07:08:22.931Z,23.60
2023-06-06T07:10:49.429Z,23.42
2023-06-06T07:13:15.859Z,25.20
2023-06-06T07:15:42.306Z,25.58
2023-06-06T07:18:10.126Z,25.92
2023-06-06T07:20:36.546Z,25.27
2023-06-06T07:23:05.065Z,24.55
2023-06-06T07:25:32.813Z,25.73
2023-06-06T07:27:59.243Z,26.38
2023-06-06T07:30:25.730Z,27.13
2023-06-06T07:32:52.194Z,26.38
2023-06-06T07:35:19.154Z,25.38
2023-06-06T07:37:45.704Z,27.92
2023-06-06T07:40:13.699Z,26.20
2023-06-06T07:42:40.644Z,27.42
2023-06-06T07:45:07.515Z,27.52
2023-06-06T07:47:33.971Z,26.25
2023-06-06T07:50:00.423Z,26.50
2023-06-06T07:52:26.824Z,35.20
2023-06-06T07:54:53.254Z,34.13
2023-06-06T07:57:21.125Z,31.42
2023-06-06T07:59:47.570Z,28.33
2023-06-06T08:02:14.018Z,27.90
2023-06-06T08:04:40.768Z,27.98
2023-06-06T08:07:07.198Z,27.38
2023-06-06T08:09:33.704Z,26.63
2023-06-06T08:12:00.163Z,27.33
2023-06-06T08:14:27.920Z,27.23
2023-06-06T08:16:54.400Z,28.30
2023-06-06T08:19:20.886Z,28.15
2023-06-06T08:21:47.307Z,26.90
2023-06-06T08:24:13.768Z,26.92
2023-06-06T08:26:40.753Z,25.33
2023-06-06T08:29:07.399Z,25.65
2023-06-06T08:31:35.352Z,26.40
2023-06-06T08:34:01.818Z,24.88
2023-06-06T08:36:28.276Z,24.83
2023-06-06T08:38:54.723Z,23.70
2023-06-06T08:41:21.544Z,25.65
2023-06-06T08:43:47.975Z,24.75
2023-06-06T08:46:14.640Z,23.52
2023-06-06T08:48:43.105Z,23.05
2023-06-06T08:51:10.008Z,22.40
2023-06-06T08:53:36.800Z,20.48
2023-06-06T08:56:03.497Z,21.45
2023-06-06T08:58:30.626Z,21.35
2023-06-06T09:00:59.049Z,22.55
2023-06-06T09:03:26.052Z,22.53
2023-06-06T09:05:54.358Z,20.95
2023-06-06T09:08:21.594Z,21.42
2023-06-06T09:10:48.041Z,21.40
2023-06-06T09:13:15.132Z,22.88
2023-06-06T09:15:41.622Z,20.60
2023-06-06T09:18:08.051Z,20.00
2023-06-06T09:20:34.990Z,20.40
2023-06-06T09:23:02.894Z,19.25
2023-06-06T09:25:29.437Z,21.08
2023-06-06T09:27:59.716Z,22.23
2023-06-06T09:30:27.235Z,20.88
2023-06-06T09:32:54.208Z,19.15
2023-06-06T09:35:20.897Z,19.15
2023-06-06T09:37:47.595Z,20.02
2023-06-06T09:40:15.886Z,20.58
2023-06-06T09:42:42.967Z,20.20
2023-06-06T09:45:13.650Z,18.90
2023-06-06T09:47:40.979Z,19.55
2023-06-06T09:50:08.061Z,18.50
2023-06-06T09:52:34.673Z,18.88
2023-06-06T09:55:01.181Z,20.20
2023-06-06T09:57:30.201Z,19.52
2023-06-06T10:00:00.016Z,17.35
2023-06-06T10:02:28.339Z,18.45
2023-06-06T10:04:55.467Z,18.10
2023-06-06T10:07:22.823Z,18.23
2023-06-06T10:09:50.544Z,19.38
2023-06-06T10:12:17.415Z,18.30
2023-06-06T10:14:45.480Z,17.75
2023-06-06T10:17:13.535Z,16.60
2023-06-06T10:19:40.332Z,17.33
2023-06-06T10:22:06.974Z,17.25
2023-06-06T10:24:34.491Z,16.48
2023-06-06T10:27:04.526Z,15.95
2023-06-06T10:29:32.900Z,17.45
2023-06-06T10:32:04.333Z,17.50
2023-06-06T10:34:33.595Z,17.02
2023-06-06T10:37:13.900Z,16.23
2023-06-06T10:39:40.297Z,15.95
2023-06-06T10:42:07.972Z,15.80
2023-06-06T10:44:35.104Z,15.60
2023-06-06T10:47:24.678Z,16.48
2023-06-06T10:50:06.149Z,15.88
2023-06-06T10:52:40.987Z,14.75
2023-06-06T10:55:14.361Z,14.40
2023-06-06T10:57:42.142Z,15.15
2023-06-06T11:00:10.497Z,15.70
2023-06-06T11:02:40.392Z,16.42
2023-06-06T11:05:07.185Z,17.20
2023-06-06T11:07:34.863Z,16.85
2023-06-06T11:10:01.358Z,17.35
2023-06-06T11:12:28.604Z,16.65
2023-06-06T11:14:55.646Z,17.10
2023-06-06T11:17:25.237Z,16.67
2023-06-06T11:19:55.573Z,16.05
2023-06-06T11:22:24.386Z,17.35
2023-06-06T11:24:50.957Z,32.78
2023-06-06T11:27:17.777Z,23.83
2023-06-06T11:29:44.223Z,24.98
2023-06-06T11:32:11.155Z,19.83
2023-06-06T11:34:37.615Z,19.23
2023-06-06T11:37:05.788Z,18.40
2023-06-06T11:39:32.262Z,17.43
2023-06-06T11:41:59.215Z,16.88
2023-06-06T11:44:32.934Z,16.23
2023-06-06T11:46:59.514Z,16.92
2023-06-06T11:49:26.009Z,18.27
2023-06-06T11:51:55.590Z,17.58
2023-06-06T11:54:23.722Z,17.20
2023-06-06T11:56:51.545Z,17.30
2023-06-06T11:59:17.967Z,22.25
2023-06-06T12:01:47.669Z,21.85
2023-06-06T12:04:16.475Z,17.67
2023-06-06T12:06:45.618Z,15.57
2023-06-06T12:09:12.196Z,15.02
2023-06-06T12:11:49.223Z,15.73
2023-06-06T12:14:15.678Z,15.15
2023-06-06T12:16:42.250Z,16.05
2023-06-06T12:19:12.100Z,31.75
2023-06-06T12:21:45.566Z,27.17
2023-06-06T12:24:19.282Z,22.58
2023-06-06T12:26:48.416Z,21.73
2023-06-06T12:31:41.075Z,19.75
2023-06-06T12:34:07.556Z,18.52
2023-06-06T12:36:35.028Z,19.35
2023-06-06T12:39:02.265Z,19.98
2023-06-06T12:41:38.306Z,20.00
2023-06-06T12:44:06.613Z,19.73
2023-06-06T12:46:33.432Z,19.53
2023-06-06T12:49:00.116Z,20.48
2023-06-06T12:51:26.566Z,19.63
2023-06-06T12:53:53.098Z,21.42
2023-06-06T12:56:19.543Z,20.13
2023-06-06T12:58:45.959Z,19.00
2023-06-06T13:01:14.022Z,21.75
2023-06-06T13:03:40.804Z,21.30
2023-06-06T13:06:07.393Z,21.08
2023-06-06T13:08:38.802Z,22.05
2023-06-06T13:11:05.595Z,20.63
2023-06-06T13:13:32.089Z,20.92
2023-06-06T13:15:58.741Z,20.08
2023-06-06T13:18:26.650Z,20.48
2023-06-06T13:20:53.184Z,20.30
2023-06-06T13:23:19.633Z,20.08
2023-06-06T13:25:46.084Z,23.52
2023-06-06T13:28:12.551Z,22.80
2023-06-06T13:30:39.020Z,22.52
2023-06-06T13:33:05.643Z,20.20
2023-06-06T13:35:33.603Z,14.95
2023-06-06T13:38:00.096Z,10.48
2023-06-06T13:40:26.500Z,10.45
2023-06-06T13:42:53.369Z,11.77
2023-06-06T13:45:22.769Z,20.23
2023-06-06T13:47:49.341Z,20.17
2023-06-06T13:50:15.915Z,16.98
2023-06-06T13:52:43.931Z,18.80
2023-06-06T13:55:10.704Z,20.70
2023-06-06T13:57:37.391Z,14.57
2023-06-06T14:00:04.244Z,15.25
2023-06-06T14:02:30.910Z,16.25
2023-06-06T14:04:57.644Z,13.75
2023-06-06T14:07:24.241Z,15.02
2023-06-06T14:09:52.071Z,14.02
2023-06-06T14:12:18.548Z,13.95
2023-06-06T14:14:45.103Z,11.40
2023-06-06T14:17:11.645Z,12.43
2023-06-06T14:19:38.320Z,11.02
2023-06-06T14:22:05.524Z,10.40
2023-06-06T14:24:32.186Z,10.75
2023-06-06T14:27:00.117Z,8.40
2023-06-06T14:29:26.590Z,8.27
2023-06-06T14:31:53.405Z,8.80
2023-06-06T14:34:20.273Z,9.07
2023-06-06T14:36:46.721Z,6.47
2023-06-06T14:39:13.347Z,10.25
2023-06-06T14:41:39.783Z,7.40
2023-06-06T14:44:07.586Z,6.05
2023-06-06T14:46:34.133Z,5.53
2023-06-06T14:49:00.662Z,5.50
2023-06-06T14:51:28.273Z,6.80
2023-06-06T14:53:55.040Z,6.18
2023-06-06T14:56:21.811Z,6.43
2023-06-06T14:58:48.269Z,5.10
2023-06-06T15:01:16.699Z,5.25
2023-06-06T15:03:43.492Z,4.68
2023-06-06T15:06:10.186Z,4.55
2023-06-06T15:08:36.801Z,4.72
2023-06-06T15:11:03.374Z,5.47
2023-06-06T15:13:30.483Z,4.38
2023-06-06T15:15:58.178Z,4.82
2023-06-06T15:18:26.306Z,5.25
2023-06-06T15:20:53.131Z,5.72
2023-06-06T15:23:19.594Z,5.05
2023-06-06T15:25:46.009Z,5.05
2023-06-06T15:28:12.645Z,5.25
2023-06-06T15:30:39.280Z,5.82
2023-06-06T15:33:06.194Z,5.90
2023-06-06T15:35:34.140Z,5.85
2023-06-06T15:38:00.660Z,5.65
2023-06-06T15:40:27.252Z,6.28
2023-06-06T15:42:54.014Z,6.40
2023-06-06T15:45:20.533Z,6.30
2023-06-06T15:47:47.046Z,6.53
2023-06-06T15:50:13.555Z,6.88
2023-06-06T15:52:42.248Z,7.35
2023-06-06T15:55:09.142Z,7.97
2023-06-06T15:57:35.565Z,7.63
2023-06-06T16:00:02.012Z,7.97
2023-06-06T16:02:28.470Z,8.18
2023-06-06T16:04:55.236Z,9.52
2023-06-06T16:07:21.892Z,8.85
2023-06-06T16:09:49.685Z,9.45
2023-06-06T16:12:16.141Z,8.13
2023-06-06T16:14:42.529Z,8.30
2023-06-06T16:17:09.232Z,7.63
2023-06-06T16:19:35.811Z,6.90
2023-06-06T16:22:02.468Z,7.38
2023-06-06T16:24:29.008Z,7.13
2023-06-06T16:26:56.842Z,7.28
2023-06-06T16:29:23.318Z,7.65
2023-06-06T16:31:51.417Z,6.90
2023-06-06T16:34:18.943Z,7.43
2023-06-06T16:36:45.475Z,7.97
2023-06-06T16:39:11.938Z,7.07
2023-06-06T16:41:38.436Z,7.60
2023-06-06T16:44:06.312Z,6.22
2023-06-06T16:46:32.810Z,7.07
2023-06-06T16:48:59.304Z,7.32
2023-06-06T16:51:25.812Z,6.05
2023-06-06T16:53:52.279Z,6.95
2023-06-06T16:56:18.751Z,6.50
2023-06-06T16:58:45.211Z,7.00
2023-06-06T17:01:13.013Z,6.75
2023-06-06T17:03:39.535Z,6.55
2023-06-06T17:06:06.062Z,6.22
2023-06-06T17:08:32.487Z,6.10
2023-06-06T17:10:58.932Z,6.45
2023-06-06T17:13:25.320Z,6.85
2023-06-06T17:15:51.847Z,7.80
2023-06-06T17:18:19.964Z,6.43
2023-06-06T17:20:46.556Z,8.05
2023-06-06T17:23:13.045Z,7.97
2023-06-06T17:30:37.145Z,6.82
2023-06-06T17:33:03.612Z,6.43
2023-06-06T17:35:31.467Z,7.38
2023-06-06T17:37:57.886Z,6.97
2023-06-06T17:40:24.349Z,6.22
2023-06-06T17:42:50.848Z,6.53
2023-06-06T17:45:17.345Z,7.60
2023-06-06T17:47:43.862Z,8.35
2023-06-06T17:50:10.509Z,9.10
2023-06-06T17:52:38.288Z,10.40
2023-06-06T17:55:05.141Z,10.05
2023-06-06T17:57:31.572Z,10.63
2023-06-06T17:59:58.331Z,10.25
2023-06-06T18:02:25.158Z,10.10
2023-06-06T18:04:51.654Z,10.73
2023-06-06T18:07:18.058Z,9.57
2023-06-06T18:09:45.837Z,9.60
2023-06-06T18:12:12.542Z,10.18
2023-06-06T18:14:38.970Z,10.00
2023-06-06T18:17:06.261Z,9.82
2023-06-06T18:19:32.715Z,9.98
2023-06-06T18:21:59.208Z,10.80
2023-06-06T18:24:25.675Z,10.63
2023-06-06T18:26:53.431Z,9.65
2023-06-06T18:29:19.877Z,10.50
2023-06-06T18:31:46.310Z,10.07
2023-06-06T18:34:12.759Z,10.60
2023-06-06T18:36:39.228Z,10.55
2023-06-06T18:39:05.658Z,10.10
2023-06-06T18:41:32.090Z,9.25
2023-06-06T18:44:00.034Z,9.32
2023-06-06T18:46:26.576Z,10.02
2023-06-06T18:48:53.058Z,10.68
2023-06-06T18:51:21.237Z,9.98
2023-06-06T18:53:47.737Z,11.05
2023-06-06T18:56:14.221Z,11.60
2023-06-06T18:58:40.663Z,12.18
2023-06-06T19:01:08.473Z,11.00
2023-06-06T19:03:35.037Z,11.57
2023-06-06T19:06:01.569Z,11.98
2023-06-06T19:08:28.439Z,12.63
2023-06-06T19:10:57.843Z,13.40
2023-06-06T19:13:24.597Z,11.75
2023-06-06T19:15:51.036Z,11.50
2023-06-06T19:18:30.786Z,11.10
2023-06-06T19:20:59.928Z,12.02
2023-06-06T19:23:26.506Z,10.93
2023-06-06T19:25:53.181Z,10.93
2023-06-06T19:28:19.652Z,10.65
2023-06-06T19:30:46.107Z,11.05
2023-06-06T19:33:12.740Z,11.95
2023-06-06T19:35:41.234Z,10.57
2023-06-06T19:38:07.692Z,11.00
2023-06-06T19:40:34.268Z,10.18
2023-06-06T19:43:00.724Z,10.32
2023-06-06T19:45:27.196Z,9.73
2023-06-06T19:47:53.654Z,10.52
2023-06-06T19:50:20.193Z,11.15
2023-06-06T19:52:48.008Z,10.70
2023-06-06T19:55:14.391Z,12.10
2023-06-06T19:57:40.838Z,11.43
2023-06-06T20:00:07.747Z,11.75
2023-06-06T20:02:34.536Z,12.95
2023-06-06T20:05:01.046Z,14.32
2023-06-06T20:07:27.471Z,12.13
2023-06-06T20:09:55.511Z,12.00
2023-06-06T20:12:21.925Z,13.25
2023-06-06T20:14:49.486Z,12.85
2023-06-06T20:17:15.990Z,12.30
2023-06-06T20:19:43.109Z,13.98
2023-06-06T20:22:09.539Z,11.77
2023-06-06T20:24:35.976Z,13.27
2023-06-06T20:27:11.838Z,12.63
2023-06-06T20:29:38.397Z,12.48
2023-06-06T20:32:05.733Z,12.88
2023-06-06T20:34:38.706Z,12.27
2023-06-06T20:37:05.683Z,11.68
2023-06-06T20:39:33.546Z,11.82
2023-06-06T20:42:00.018Z,12.20
2023-06-06T20:44:27.817Z,13.15
2023-06-06T20:46:54.283Z,12.98
2023-06-06T20:49:20.725Z,12.32
2023-06-06T20:51:47.207Z,11.85
2023-06-06T20:54:14.168Z,11.68
2023-06-06T20:56:40.783Z,13.65
2023-06-06T20:59:07.199Z,12.15
2023-06-06T21:01:35.100Z,11.60
2023-06-06T21:04:01.680Z,12.07
2023-06-06T21:06:28.141Z,12.15
2023-06-06T21:08:54.557Z,12.13
2023-06-06T21:11:21.012Z,10.80
2023-06-06T21:13:47.730Z,11.73
2023-06-06T21:16:14.220Z,12.30
2023-06-06T21:18:42.657Z,11.88
2023-06-06T21:21:10.683Z,12.50
2023-06-06T21:23:37.338Z,14.25
2023-06-06T21:26:03.801Z,14.13
2023-06-06T21:28:31.648Z,12.65
2023-06-06T21:31:00.343Z,14.13
2023-06-06T21:33:26.853Z,14.57
2023-06-06T21:35:54.716Z,13.60
2023-06-06T21:38:21.196Z,14.77
2023-06-06T21:40:47.584Z,15.90
2023-06-06T21:43:13.998Z,15.75
2023-06-06T21:45:40.499Z,15.82
2023-06-06T21:48:07.144Z,14.35
2023-06-06T21:50:33.645Z,14.70
2023-06-06T21:53:01.403Z,16.80
2023-06-06T21:55:27.800Z,15.80
2023-06-06T21:57:54.211Z,14.32
2023-06-06T22:00:20.792Z,15.52
2023-06-06T22:02:47.313Z,16.67
2023-06-06T22:05:13.862Z,18.35
2023-06-06T22:07:40.316Z,18.52
2023-06-06T22:10:08.571Z,20.35
2023-06-06T22:12:35.020Z,17.45
2023-06-06T22:15:01.416Z,17.45
2023-06-06T22:17:27.939Z,17.35
2023-06-06T22:19:54.349Z,15.43
2023-06-06T22:22:20.747Z,17.30
2023-06-06T22:24:47.413Z,16.45
2023-06-06T22:27:15.369Z,16.60
2023-06-06T22:29:41.842Z,17.35
2023-06-06T22:32:08.859Z,16.55
2023-06-06T22:34:35.473Z,16.60
2023-06-06T22:37:01.910Z,20.35
2023-06-06T22:39:28.376Z,19.63
2023-06-06T22:41:54.775Z,19.95
2023-06-06T22:44:22.757Z,20.73
2023-06-06T22:46:49.182Z,19.50
2023-06-06T22:49:15.581Z,19.17
2023-06-06T22:51:41.984Z,18.70
2023-06-06T22:54:08.441Z,19.08
2023-06-06T22:56:34.889Z,19.20
2023-06-06T22:59:01.379Z,19.52
2023-06-06T23:01:29.273Z,19.05
2023-06-06T23:03:55.804Z,17.80
2023-06-06T23:06:22.275Z,17.13
2023-06-06T23:08:48.728Z,15.15
2023-06-06T23:11:15.183Z,16.92
2023-06-06T23:13:41.613Z,16.25
2023-06-06T23:16:08.143Z,16.75
2023-06-06T23:18:36.154Z,17.52
2023-06-06T23:21:02.574Z,19.25
2023-06-06T23:23:29.046Z,20.48
2023-06-06T23:25:55.470Z,19.05
2023-06-06T23:28:21.893Z,21.65
2023-06-06T23:30:48.496Z,23.88
2023-06-06T23:33:14.916Z,24.73
2023-06-06T23:35:42.856Z,27.83
2023-06-06T23:38:09.273Z,36.60
2023-06-06T23:40:35.730Z,41.05
2023-06-06T23:43:02.889Z,44.15
2023-06-06T23:45:29.287Z,48.20
2023-06-06T23:47:55.741Z,44.17
2023-06-06T23:50:22.244Z,44.83
2023-06-06T23:52:50.052Z,41.33
2023-06-06T23:55:16.511Z,35.65
2023-06-06T23:57:42.992Z,34.63
